Largo — PFNC — position and weather

sailwx.info

Track history (hours):
 
Tides and Currents Weather Stations Pressure Air Temp Water Temp Dewpoint Dewpoint Depression Visibility Wind Speed Wind Dir Waves Ship Positions

Largo

Last reported at 2014-Jul-28 21:05 UTC. Time now 2014-Jul-30 17:08 UTC.
Position N 39°50' E 000°18'.

Length 91 m; draft 4.7 m.

Type: Cargo ship. MMSI: 245645000.

Date/timePositionNaut miles runAvg speedWind from/ knotsBaromVisibWave heightAir tempDewpointWater temp
2014-Jul-28 21:05N 39°50' E 000°18'710.9
2014-Jul-28 20:25N 39°46' E 000°26'4110.7
2014-Jul-28 16:33N 39°22' E 001°10'1010.4
2014-Jul-28 15:33N 39°16' E 001°21'1010.3
2014-Jul-28 14:33N 39°11' E 001°32'1010.2
2014-Jul-28 13:33N 39°04' E 001°42'1010.4
2014-Jul-28 12:33N 38°58' E 001°52'1010.4
2014-Jul-28 11:33N 38°51' E 002°03'1010.2
2014-Jul-28 10:32N 38°44' E 002°13'1010.3
2014-Jul-28 09:34N 38°38' E 002°22'1010.4
2014-Jul-28 08:33N 38°31' E 002°33'1010.4
2014-Jul-28 07:33N 38°24' E 002°43'1010.5
2014-Jul-28 06:33N 38°18' E 002°53'1110.5
2014-Jul-28 05:33N 38°11' E 003°03'1110.7
2014-Jul-28 04:33N 38°04' E 003°13'2410.8
2014-Jul-28 02:22N 37°48' E 003°36'911.0
2014-Jul-28 01:33N 37°43' E 003°45'1111.1
2014-Jul-28 00:32N 37°36' E 003°56'  
2014-Jul-18 21:12N 36°44' E 005°09'  
Track history (hours):
 
Tides and Currents Weather Stations Pressure Air Temp Water Temp Dewpoint Dewpoint Depression Visibility Wind Speed Wind Dir Waves Ship Positions

Largo

Last reported at 2014-Jul-28 21:05 UTC. Time now 2014-Jul-30 17:08 UTC.
Position N 39°50' E 000°18'.

Length 91 m; draft 4.7 m.

Type: Cargo ship. MMSI: 245645000.

Date/timePositionNaut miles runAvg speedWind from/ knotsBaromVisibWave heightAir tempDewpointWater temp
2014-Jul-28 21:05N 39°50' E 000°18'710.9
2014-Jul-28 20:25N 39°46' E 000°26'4110.7
2014-Jul-28 16:33N 39°22' E 001°10'1010.4
2014-Jul-28 15:33N 39°16' E 001°21'1010.3
2014-Jul-28 14:33N 39°11' E 001°32'1010.2
2014-Jul-28 13:33N 39°04' E 001°42'1010.4
2014-Jul-28 12:33N 38°58' E 001°52'1010.4
2014-Jul-28 11:33N 38°51' E 002°03'1010.2
2014-Jul-28 10:32N 38°44' E 002°13'1010.3
2014-Jul-28 09:34N 38°38' E 002°22'1010.4
2014-Jul-28 08:33N 38°31' E 002°33'1010.4
2014-Jul-28 07:33N 38°24' E 002°43'1010.5
2014-Jul-28 06:33N 38°18' E 002°53'1110.5
2014-Jul-28 05:33N 38°11' E 003°03'1110.7
2014-Jul-28 04:33N 38°04' E 003°13'2410.8
2014-Jul-28 02:22N 37°48' E 003°36'911.0
2014-Jul-28 01:33N 37°43' E 003°45'1111.1
2014-Jul-28 00:32N 37°36' E 003°56'  
2014-Jul-18 21:12N 36°44' E 005°09'  

Dump ship's entire track history